createdAt,value
2022-11-10T00:00:19.673Z,33.77
2022-11-10T00:02:47.993Z,33.80
2022-11-10T00:05:17.289Z,34.47
2022-11-10T00:07:45.533Z,32.50
2022-11-10T00:10:15.523Z,33.13
2022-11-10T00:12:43.708Z,34.07
2022-11-10T00:15:30.174Z,34.57
2022-11-10T00:17:58.368Z,33.00
2022-11-10T00:20:26.568Z,33.37
2022-11-10T00:22:56.411Z,36.13
2022-11-10T00:25:26.948Z,34.73
2022-11-10T00:27:55.154Z,35.50
2022-11-10T00:30:23.401Z,34.30
2022-11-10T00:32:51.582Z,34.60
2022-11-10T00:35:19.978Z,37.33
2022-11-10T00:37:54.358Z,37.30
2022-11-10T00:40:22.971Z,35.67
2022-11-10T00:42:52.617Z,35.57
2022-11-10T00:45:20.793Z,32.70
2022-11-10T00:47:49.058Z,34.03
2022-11-10T00:50:17.833Z,34.70
2022-11-10T00:52:46.054Z,33.40
2022-11-10T00:55:14.233Z,32.40
2022-11-10T00:57:42.453Z,31.97
2022-11-10T01:00:12.982Z,33.63
2022-11-10T01:02:41.564Z,33.97
2022-11-10T01:05:28.151Z,33.33
2022-11-10T01:07:56.369Z,33.27
2022-11-10T01:10:24.608Z,33.33
2022-11-10T01:12:52.815Z,33.83
2022-11-10T01:15:27.285Z,35.00
2022-11-10T01:17:57.092Z,35.13
2022-11-10T01:20:26.097Z,34.67
2022-11-10T01:22:54.351Z,37.03
2022-11-10T01:25:22.600Z,34.07
2022-11-10T01:27:51.749Z,33.57
2022-11-10T01:30:20.573Z,34.67
2022-11-10T01:32:50.204Z,33.93
2022-11-10T01:35:18.569Z,35.90
2022-11-10T01:37:46.786Z,37.23
2022-11-10T01:40:15.633Z,34.57
2022-11-10T01:42:52.125Z,36.87
2022-11-10T01:45:49.783Z,36.03
2022-11-10T01:48:26.457Z,35.03
2022-11-10T01:50:55.631Z,37.37
2022-11-10T01:53:28.461Z,36.90
2022-11-10T01:55:58.132Z,36.03
2022-11-10T01:58:40.297Z,35.60
2022-11-10T02:01:09.377Z,36.73
2022-11-10T02:03:44.168Z,35.50
2022-11-10T02:06:13.656Z,35.07
2022-11-10T02:08:43.384Z,35.57
2022-11-10T02:11:12.132Z,37.73
2022-11-10T02:13:40.487Z,37.00
2022-11-10T02:16:09.087Z,36.53
2022-11-10T02:18:38.837Z,37.10
2022-11-10T02:21:09.689Z,37.57
2022-11-10T02:23:58.685Z,36.83
2022-11-10T02:26:30.796Z,36.93
2022-11-10T02:28:59.052Z,36.03
2022-11-10T02:31:27.328Z,37.80
2022-11-10T02:33:55.546Z,36.60
2022-11-10T02:36:25.148Z,38.07
2022-11-10T02:38:53.385Z,35.20
2022-11-10T02:41:22.687Z,35.67
2022-11-10T02:43:51.171Z,34.57
2022-11-10T02:46:19.405Z,34.07
2022-11-10T02:48:47.993Z,33.27
2022-11-10T02:51:16.250Z,36.57
2022-11-10T02:53:45.958Z,35.70
2022-11-10T02:56:14.201Z,35.90
2022-11-10T02:58:42.430Z,35.53
2022-11-10T03:01:10.785Z,34.07
2022-11-10T03:03:39.186Z,34.57
2022-11-10T03:06:46.296Z,35.40
2022-11-10T03:09:16.287Z,32.47
2022-11-10T03:11:45.437Z,34.50
2022-11-10T03:14:13.656Z,33.77
2022-11-10T03:16:41.872Z,32.80
2022-11-10T03:19:10.068Z,33.23
2022-11-10T03:21:38.278Z,29.63
2022-11-10T03:24:07.038Z,33.23
2022-11-10T03:26:42.622Z,32.50
2022-11-10T03:29:10.886Z,32.10
2022-11-10T03:31:39.117Z,32.00
2022-11-10T03:34:07.533Z,31.63
2022-11-10T03:36:35.803Z,34.00
2022-11-10T03:39:04.017Z,33.33
2022-11-10T03:41:32.351Z,33.83
2022-11-10T03:44:01.953Z,32.90
2022-11-10T03:46:30.227Z,33.43
2022-11-10T03:48:58.453Z,33.93
2022-11-10T03:51:26.676Z,33.47
2022-11-10T03:53:54.907Z,33.23
2022-11-10T03:56:23.150Z,32.17
2022-11-10T03:58:51.361Z,34.07
2022-11-10T04:01:20.987Z,33.67
2022-11-10T04:03:51.665Z,32.17
2022-11-10T04:06:37.709Z,33.17
2022-11-10T04:09:06.964Z,31.47
2022-11-10T04:12:07.157Z,31.80
2022-11-10T04:14:52.536Z,33.00
2022-11-10T04:17:22.186Z,34.87
2022-11-10T04:19:50.377Z,32.70
2022-11-10T04:22:38.588Z,32.57
2022-11-10T04:25:07.683Z,31.77
2022-11-10T04:27:41.135Z,32.10
2022-11-10T04:30:10.405Z,31.03
2022-11-10T04:32:42.679Z,29.70
2022-11-10T04:35:13.819Z,30.97
2022-11-10T04:37:54.965Z,28.20
2022-11-10T04:40:28.473Z,28.07
2022-11-10T04:43:14.124Z,26.67
2022-11-10T04:45:49.697Z,26.97
2022-11-10T04:48:19.341Z,27.60
2022-11-10T04:50:47.645Z,28.27
2022-11-10T04:53:16.694Z,25.77
2022-11-10T04:56:13.307Z,25.13
2022-11-10T04:58:41.596Z,24.83
2022-11-10T05:01:13.019Z,25.37
2022-11-10T05:03:43.187Z,24.80
2022-11-10T05:06:12.083Z,23.67
2022-11-10T05:08:41.916Z,25.83
2022-11-10T05:11:10.962Z,25.30
2022-11-10T05:13:39.378Z,25.40
2022-11-10T05:16:08.733Z,25.60
2022-11-10T05:18:37.060Z,26.03
2022-11-10T05:21:17.050Z,24.60
2022-11-10T05:23:55.389Z,25.97
2022-11-10T05:26:33.654Z,25.63
2022-11-10T05:29:14.752Z,24.33
2022-11-10T05:31:50.487Z,24.97
2022-11-10T05:34:22.126Z,25.03
2022-11-10T05:37:12.024Z,25.57
2022-11-10T05:39:43.088Z,24.30
2022-11-10T05:42:11.340Z,24.70
2022-11-10T05:44:45.377Z,24.93
2022-11-10T05:47:23.706Z,23.80
2022-11-10T05:50:19.472Z,24.53
2022-11-10T05:52:50.925Z,24.60
2022-11-10T05:55:29.653Z,24.10
2022-11-10T05:58:00.220Z,22.70
2022-11-10T06:00:30.557Z,23.90
2022-11-10T06:03:00.880Z,23.27
2022-11-10T06:05:39.228Z,22.73
2022-11-10T06:08:11.432Z,23.33
2022-11-10T06:10:40.585Z,23.90
2022-11-10T06:13:08.885Z,23.53
2022-11-10T06:15:40.287Z,22.93
2022-11-10T06:18:08.504Z,24.33
2022-11-10T06:20:40.012Z,23.43
2022-11-10T06:23:32.520Z,21.90
2022-11-10T06:26:00.860Z,22.47
2022-11-10T06:28:41.800Z,21.57
2022-11-10T06:31:10.004Z,23.90
2022-11-10T06:33:38.248Z,22.47
2022-11-10T06:36:06.929Z,23.50
2022-11-10T06:38:45.885Z,23.80
2022-11-10T06:41:14.125Z,23.27
2022-11-10T06:43:45.391Z,23.37
2022-11-10T06:46:13.615Z,24.07
2022-11-10T06:49:07.332Z,24.23
2022-11-10T06:51:44.700Z,26.00
2022-11-10T06:54:17.041Z,26.27
2022-11-10T06:56:45.331Z,25.17
2022-11-10T06:59:16.442Z,23.63
2022-11-10T07:01:53.778Z,25.43
2022-11-10T07:04:22.188Z,25.23
2022-11-10T07:06:50.526Z,31.67
2022-11-10T07:09:23.108Z,30.30
2022-11-10T07:12:03.508Z,29.93
2022-11-10T07:14:34.811Z,31.80
2022-11-10T07:17:13.184Z,30.53
2022-11-10T07:19:46.804Z,29.67
2022-11-10T07:22:15.044Z,27.37
2022-11-10T07:24:53.498Z,31.43
2022-11-10T07:27:23.172Z,28.90
2022-11-10T07:29:51.521Z,31.87
2022-11-10T07:32:29.963Z,31.00
2022-11-10T07:34:58.297Z,29.73
2022-11-10T07:37:28.871Z,34.37
2022-11-10T07:39:58.580Z,32.20
2022-11-10T07:42:26.855Z,32.30
2022-11-10T07:44:55.028Z,31.57
2022-11-10T07:47:23.253Z,33.67
2022-11-10T07:49:51.496Z,34.80
2022-11-10T07:52:19.707Z,32.87
2022-11-10T07:54:47.943Z,33.60
2022-11-10T07:57:17.540Z,34.00
2022-11-10T07:59:45.716Z,32.90
2022-11-10T08:02:14.051Z,35.87
2022-11-10T08:04:42.227Z,35.23
2022-11-10T08:07:10.611Z,32.67
2022-11-10T08:09:38.975Z,32.33
2022-11-10T08:12:07.418Z,30.63
2022-11-10T08:14:37.304Z,32.57
2022-11-10T08:17:05.567Z,36.27
2022-11-10T08:19:33.787Z,36.00
2022-11-10T08:22:01.990Z,38.73
2022-11-10T08:24:30.217Z,40.43
2022-11-10T08:26:58.466Z,41.43
2022-11-10T08:29:26.701Z,36.77
2022-11-10T08:31:56.292Z,39.60
2022-11-10T08:34:24.562Z,36.27
2022-11-10T08:36:53.317Z,39.27
2022-11-10T08:39:38.140Z,35.90
2022-11-10T08:42:07.486Z,38.80
2022-11-10T08:44:35.720Z,36.00
2022-11-10T08:47:05.417Z,31.80
2022-11-10T08:49:33.680Z,35.23
2022-11-10T08:52:01.844Z,33.67
2022-11-10T08:54:30.275Z,33.70
2022-11-10T08:56:58.471Z,31.60
2022-11-10T08:59:27.051Z,31.70
2022-11-10T09:01:55.302Z,30.20
2022-11-10T09:04:25.046Z,28.47
2022-11-10T09:06:53.300Z,26.53
2022-11-10T09:09:21.549Z,26.47
2022-11-10T09:11:49.782Z,25.93
2022-11-10T09:14:18.080Z,24.50
2022-11-10T09:16:46.584Z,26.97
2022-11-10T09:19:19.620Z,25.00
2022-11-10T09:21:49.728Z,24.77
2022-11-10T09:24:18.087Z,25.43
2022-11-10T09:26:47.698Z,25.30
2022-11-10T09:29:16.081Z,23.33
2022-11-10T09:31:45.317Z,21.93
2022-11-10T09:34:13.783Z,20.93
2022-11-10T09:36:42.041Z,21.30
2022-11-10T09:39:11.672Z,20.60
2022-11-10T09:41:42.019Z,19.97
2022-11-10T09:44:17.524Z,19.13
2022-11-10T09:46:48.996Z,19.67
2022-11-10T09:49:31.102Z,19.30
2022-11-10T09:52:00.914Z,18.93
2022-11-10T09:54:38.304Z,20.20
2022-11-10T09:57:08.865Z,19.10
2022-11-10T09:59:38.116Z,19.40
2022-11-10T10:02:13.443Z,19.97
2022-11-10T10:05:03.629Z,18.53
2022-11-10T10:07:38.963Z,18.07
2022-11-10T10:10:17.602Z,19.73
2022-11-10T10:13:09.407Z,19.97
2022-11-10T10:15:46.124Z,17.63
2022-11-10T10:18:24.584Z,18.87
2022-11-10T10:21:12.449Z,18.90
2022-11-10T10:26:42.365Z,18.30
2022-11-10T10:29:14.835Z,17.43
2022-11-10T10:31:45.932Z,18.10
2022-11-10T10:34:16.809Z,19.23
2022-11-10T10:36:45.665Z,20.23
2022-11-10T10:39:50.085Z,20.27
2022-11-10T10:43:08.153Z,19.17
2022-11-10T10:46:10.662Z,19.60
2022-11-10T10:48:38.937Z,18.37
2022-11-10T10:51:07.439Z,19.50
2022-11-10T10:53:47.415Z,19.47
2022-11-10T10:56:20.286Z,20.53
2022-11-10T10:59:04.066Z,19.47
2022-11-10T11:01:35.512Z,18.60
2022-11-10T11:04:28.954Z,18.70
2022-11-10T11:06:59.211Z,18.40
2022-11-10T11:09:30.151Z,19.90
2022-11-10T11:12:04.473Z,20.23
2022-11-10T11:14:33.688Z,21.10
2022-11-10T11:17:05.071Z,19.93
2022-11-10T11:19:35.612Z,20.17
2022-11-10T11:22:29.977Z,19.67
2022-11-10T11:25:07.065Z,21.37
2022-11-10T11:27:46.408Z,20.50
2022-11-10T11:30:17.534Z,20.87
2022-11-10T11:33:14.947Z,20.23
2022-11-10T11:35:51.059Z,20.07
2022-11-10T11:38:28.595Z,18.70
2022-11-10T11:41:10.539Z,20.20
2022-11-10T11:43:59.740Z,18.83
2022-11-10T11:46:53.940Z,19.90
2022-11-10T11:49:37.452Z,18.50
2022-11-10T11:52:16.640Z,19.67
2022-11-10T11:54:59.854Z,19.07
2022-11-10T11:57:40.060Z,19.50
2022-11-10T12:00:13.384Z,18.00
2022-11-10T12:03:12.136Z,19.07
2022-11-10T12:05:53.763Z,19.13
2022-11-10T12:08:32.798Z,18.73
2022-11-10T12:11:10.724Z,19.50
2022-11-10T12:13:44.588Z,19.27
2022-11-10T12:16:21.641Z,18.47
2022-11-10T12:18:59.949Z,19.53
2022-11-10T12:21:37.355Z,20.97
2022-11-10T12:24:32.883Z,20.67
2022-11-10T12:27:28.336Z,21.23
2022-11-10T12:30:02.404Z,19.83
2022-11-10T12:32:37.059Z,20.00
2022-11-10T12:35:14.170Z,19.77
2022-11-10T12:37:48.376Z,18.80
2022-11-10T12:40:18.384Z,19.40
2022-11-10T12:42:52.356Z,18.93
2022-11-10T12:45:24.380Z,18.47
2022-11-10T12:47:54.020Z,19.23
2022-11-10T12:50:43.450Z,20.87
2022-11-10T12:53:23.019Z,20.90
2022-11-10T12:55:57.296Z,18.73
2022-11-10T12:58:26.814Z,20.33
2022-11-10T13:01:01.718Z,20.47
2022-11-10T13:03:32.442Z,21.47
2022-11-10T13:06:05.597Z,20.10
2022-11-10T13:08:39.229Z,19.70
2022-11-10T13:11:25.546Z,20.90
2022-11-10T13:13:59.685Z,19.40
2022-11-10T13:16:49.533Z,19.17
2022-11-10T13:19:54.478Z,20.80
2022-11-10T13:22:36.869Z,21.10
2022-11-10T13:25:45.370Z,20.43
2022-11-10T13:28:14.998Z,18.43
2022-11-10T13:30:46.092Z,20.33
2022-11-10T13:34:06.183Z,20.20
2022-11-10T13:36:39.225Z,20.43
2022-11-10T13:39:26.144Z,20.03
2022-11-10T13:42:04.798Z,20.00
2022-11-10T13:44:37.687Z,19.87
2022-11-10T13:47:39.078Z,20.27
2022-11-10T13:50:36.865Z,18.90
2022-11-10T13:53:29.092Z,21.43
2022-11-10T13:56:08.511Z,20.90
2022-11-10T13:58:40.310Z,21.07
2022-11-10T14:01:31.229Z,20.87
2022-11-10T14:04:04.291Z,21.03
2022-11-10T14:06:43.398Z,21.70
2022-11-10T14:09:26.969Z,20.43
2022-11-10T14:12:23.383Z,20.93
2022-11-10T14:14:57.495Z,22.17
2022-11-10T14:17:29.839Z,20.83
2022-11-10T14:19:58.529Z,22.43
2022-11-10T14:22:32.281Z,21.53
2022-11-10T14:25:05.907Z,21.63
2022-11-10T14:27:38.054Z,21.00
2022-11-10T14:30:24.641Z,24.03
2022-11-10T14:33:03.959Z,22.23
2022-11-10T14:35:34.437Z,24.10
2022-11-10T14:38:20.179Z,22.80
2022-11-10T14:40:49.598Z,21.53
2022-11-10T14:43:30.528Z,22.20
2022-11-10T14:45:59.754Z,24.20
2022-11-10T14:48:59.694Z,21.33
2022-11-10T14:51:31.105Z,21.27
2022-11-10T14:53:59.702Z,22.60
2022-11-10T14:56:30.686Z,24.93
2022-11-10T14:59:02.288Z,24.37
2022-11-10T15:01:35.816Z,22.43
2022-11-10T15:04:07.094Z,23.33
2022-11-10T15:06:36.082Z,22.83
2022-11-10T15:09:13.865Z,26.93
2022-11-10T15:11:49.786Z,23.27
2022-11-10T15:14:48.552Z,23.50
2022-11-10T15:17:20.207Z,22.57
2022-11-10T15:19:56.464Z,25.23
2022-11-10T15:22:30.802Z,23.10
2022-11-10T15:25:01.669Z,21.73
2022-11-10T15:27:57.594Z,25.50
2022-11-10T15:30:27.167Z,22.43
2022-11-10T15:33:00.913Z,28.40
2022-11-10T15:35:33.444Z,27.43
2022-11-10T15:38:03.814Z,21.37
2022-11-10T15:40:35.486Z,21.30
2022-11-10T15:43:11.569Z,22.57
2022-11-10T15:45:40.453Z,22.67
2022-11-10T15:48:14.103Z,20.33
2022-11-10T15:50:45.510Z,20.80
2022-11-10T15:53:17.059Z,20.20
2022-11-10T15:55:46.212Z,23.13
2022-11-10T15:58:16.663Z,24.77
2022-11-10T16:00:45.222Z,23.53
2022-11-10T16:03:15.451Z,22.50
2022-11-10T16:05:45.311Z,24.20
2022-11-10T16:08:15.488Z,24.80
2022-11-10T16:10:45.954Z,25.97
2022-11-10T16:13:21.551Z,24.53
2022-11-10T16:15:50.189Z,23.87
2022-11-10T16:18:21.081Z,22.07
2022-11-10T16:20:52.869Z,21.83
2022-11-10T16:23:46.550Z,21.50
2022-11-10T16:26:17.309Z,26.00
2022-11-10T16:28:47.838Z,26.37
2022-11-10T16:31:17.514Z,22.33
2022-11-10T16:33:47.022Z,23.17
2022-11-10T16:36:24.645Z,25.40
2022-11-10T16:38:53.303Z,22.70
2022-11-10T16:41:22.016Z,22.70
2022-11-10T16:43:50.599Z,20.93
2022-11-10T16:46:21.620Z,22.77
2022-11-10T16:48:51.300Z,22.50
2022-11-10T16:51:28.782Z,21.77
2022-11-10T16:54:06.585Z,21.73
2022-11-10T16:56:34.866Z,20.57
2022-11-10T16:59:04.351Z,19.90
2022-11-10T17:01:35.151Z,19.70
2022-11-10T17:04:08.311Z,19.33
2022-11-10T17:06:43.627Z,19.73
2022-11-10T17:09:17.190Z,19.70
2022-11-10T17:11:45.376Z,21.27
2022-11-10T17:14:14.173Z,20.30
2022-11-10T17:16:45.301Z,19.33
2022-11-10T17:19:19.914Z,22.47
2022-11-10T17:21:50.620Z,22.33
2022-11-10T17:24:19.185Z,20.63
2022-11-10T17:26:48.350Z,21.20
2022-11-10T17:29:21.082Z,22.23
2022-11-10T17:31:50.272Z,22.00
2022-11-10T17:34:18.576Z,22.90
2022-11-10T17:36:46.942Z,25.03
2022-11-10T17:39:17.916Z,27.47
2022-11-10T17:41:46.242Z,22.80
2022-11-10T17:44:15.221Z,19.00
2022-11-10T17:46:43.831Z,20.00
2022-11-10T17:49:14.949Z,19.47
2022-11-10T17:51:44.625Z,18.93
2022-11-10T17:54:15.214Z,18.67
2022-11-10T17:56:44.891Z,18.93
2022-11-10T17:59:13.793Z,18.80
2022-11-10T18:02:07.399Z,18.60
2022-11-10T18:04:35.684Z,17.60
2022-11-10T18:07:04.091Z,16.60
2022-11-10T18:09:32.512Z,17.33
2022-11-10T18:12:02.095Z,17.20
2022-11-10T18:14:33.942Z,16.93
2022-11-10T18:17:02.156Z,17.60
2022-11-10T18:19:30.444Z,19.40
2022-11-10T18:21:58.636Z,19.73
2022-11-10T18:24:51.609Z,19.77
2022-11-10T18:27:21.293Z,18.73
2022-11-10T18:30:15.680Z,18.67
2022-11-10T18:32:44.029Z,17.90
2022-11-10T18:35:18.891Z,16.80
2022-11-10T18:38:02.426Z,18.00
2022-11-10T18:40:30.697Z,17.83
2022-11-10T18:43:06.881Z,18.00
2022-11-10T18:45:36.763Z,17.53
2022-11-10T18:48:05.693Z,17.23
2022-11-10T18:50:33.938Z,18.60
2022-11-10T18:53:04.560Z,16.90
2022-11-10T18:55:32.918Z,17.10
2022-11-10T18:58:03.484Z,16.03
2022-11-10T19:00:31.668Z,15.43
2022-11-10T19:03:00.001Z,15.63
2022-11-10T19:05:29.319Z,17.23
2022-11-10T19:07:57.616Z,17.27
2022-11-10T19:10:25.874Z,16.97
2022-11-10T19:12:54.170Z,15.57
2022-11-10T19:15:23.877Z,15.00
2022-11-10T19:17:52.075Z,15.17
2022-11-10T19:20:20.445Z,16.03
2022-11-10T19:22:48.726Z,16.80
2022-11-10T19:25:17.023Z,17.60
2022-11-10T19:27:45.295Z,15.83
2022-11-10T19:30:14.602Z,15.17
2022-11-10T19:32:44.326Z,15.43
2022-11-10T19:35:13.520Z,15.30
2022-11-10T19:37:41.872Z,15.63
2022-11-10T19:40:11.388Z,14.27
2022-11-10T19:42:39.735Z,14.27
2022-11-10T19:45:32.761Z,15.70
2022-11-10T19:48:02.420Z,15.97
2022-11-10T19:50:30.688Z,15.83
2022-11-10T19:52:58.970Z,15.87
2022-11-10T19:55:27.145Z,16.07
2022-11-10T19:57:55.488Z,15.50
2022-11-10T20:00:23.799Z,16.63
2022-11-10T20:02:52.107Z,18.10
2022-11-10T20:05:22.217Z,19.17
2022-11-10T20:08:40.840Z,20.87
2022-11-10T20:11:10.953Z,19.63
2022-11-10T20:13:39.328Z,17.53
2022-11-10T20:16:09.159Z,17.83
2022-11-10T20:19:02.892Z,17.20
2022-11-10T20:21:32.507Z,16.07
2022-11-10T20:24:00.813Z,17.20
2022-11-10T20:26:29.000Z,20.07
2022-11-10T20:28:57.336Z,20.03
2022-11-10T20:31:26.995Z,19.73
2022-11-10T20:33:56.716Z,19.43
2022-11-10T20:36:26.982Z,19.37
2022-11-10T20:38:58.171Z,21.97
2022-11-10T20:41:28.914Z,20.40
2022-11-10T20:43:57.256Z,18.80
2022-11-10T20:46:54.064Z,18.17
2022-11-10T20:49:13.957Z,20.80
2022-11-10T20:51:43.506Z,21.03
2022-11-10T20:54:15.063Z,21.57
2022-11-10T20:56:43.298Z,22.37
2022-11-10T20:59:12.068Z,23.87
2022-11-10T21:01:40.490Z,20.27
2022-11-10T21:04:08.741Z,18.97
2022-11-10T21:06:37.062Z,24.27
2022-11-10T21:09:06.809Z,36.03
2022-11-10T21:11:54.216Z,43.20
2022-11-10T21:14:22.936Z,37.97
2022-11-10T21:16:51.250Z,27.77
2022-11-10T21:19:19.424Z,24.07
2022-11-10T21:21:47.765Z,23.73
2022-11-10T21:24:15.992Z,23.80
2022-11-10T21:26:45.606Z,21.40
2022-11-10T21:30:05.483Z,24.13
2022-11-10T21:32:35.210Z,22.37
2022-11-10T21:35:03.439Z,21.93
2022-11-10T21:37:31.674Z,19.90
2022-11-10T21:39:59.905Z,19.50
2022-11-10T21:42:35.183Z,20.53
2022-11-10T21:45:03.748Z,21.40
2022-11-10T21:47:32.101Z,20.53
2022-11-10T21:50:00.439Z,19.93
2022-11-10T21:52:33.057Z,19.93
2022-11-10T21:55:01.253Z,19.50
2022-11-10T21:57:30.903Z,19.60
2022-11-10T21:59:59.203Z,21.10
2022-11-10T22:02:28.543Z,19.80
2022-11-10T22:04:56.833Z,20.03
2022-11-10T22:07:25.405Z,19.07
2022-11-10T22:10:11.943Z,20.00
2022-11-10T22:12:59.708Z,28.43
2022-11-10T22:15:46.171Z,28.50
2022-11-10T22:18:33.672Z,30.70
2022-11-10T22:21:20.336Z,27.00
2022-11-10T22:24:05.963Z,24.90
2022-11-10T22:26:34.390Z,24.40
2022-11-10T22:29:04.075Z,24.77
2022-11-10T22:31:34.690Z,24.50
2022-11-10T22:34:03.182Z,25.67
2022-11-10T22:36:31.686Z,26.03
2022-11-10T22:39:03.381Z,21.17
2022-11-10T22:42:31.629Z,20.90
2022-11-10T22:45:01.313Z,21.10
2022-11-10T22:47:49.546Z,19.80
2022-11-10T22:50:17.997Z,20.23
2022-11-10T22:52:46.237Z,23.30
2022-11-10T22:55:14.605Z,21.20
2022-11-10T22:57:42.853Z,21.83
2022-11-10T23:00:14.384Z,18.60
2022-11-10T23:02:42.598Z,18.57
2022-11-10T23:05:11.058Z,18.77
2022-11-10T23:07:39.977Z,21.47
2022-11-10T23:10:09.463Z,19.40
2022-11-10T23:12:37.749Z,20.73
2022-11-10T23:15:06.321Z,21.17
2022-11-10T23:17:35.934Z,19.90
2022-11-10T23:20:04.396Z,19.07
2022-11-10T23:22:32.794Z,19.80
2022-11-10T23:25:00.986Z,18.77
2022-11-10T23:27:29.256Z,17.87
2022-11-10T23:29:57.489Z,18.30
2022-11-10T23:32:25.714Z,18.33
2022-11-10T23:34:55.282Z,18.87
2022-11-10T23:37:23.523Z,19.50
2022-11-10T23:39:51.790Z,16.57
2022-11-10T23:42:20.068Z,20.33
2022-11-10T23:44:48.244Z,18.37
2022-11-10T23:47:16.536Z,18.50
2022-11-10T23:49:44.724Z,20.03
2022-11-10T23:52:14.371Z,19.97
2022-11-10T23:54:42.649Z,20.07
2022-11-10T23:57:10.894Z,22.10
2022-11-10T23:59:39.241Z,21.20
